Time;durP1;ratioP1;P1;durP2;ratioP2;P2;SDS_P1;SDS_P2;PMS_P1;PMS_P2;Temp;Humidity;BMP_temperature;BMP_pressure;BME280_temperature;BME280_humidity;BME280_pressure;Samples;Min_cycle;Max_cycle;Signal;HPM_P1;HPM_P2
2022/10/29 00:02:17;;;;;;;;;;;;;;;-142.75;100.00;77410.91;5089402;28;19920;-69
2022/10/29 00:04:42;;;;;;;;;;;;;;;-142.75;100.00;77412.88;5092770;28;19930;-70
2022/10/29 00:07:07;;;;;;;;;;;;;;;-142.75;100.00;77420.75;5104310;28;19924;-70
2022/10/29 00:09:34;;;;;;;;;;;;;;;-142.75;100.00;77438.47;5107226;28;20430;-69
2022/10/29 00:11:59;;;;;;;;;;;;;;;-142.75;100.00;77426.66;5107280;28;20339;-70
2022/10/29 00:14:24;;;;;;;;;;;;;;;-142.75;100.00;77428.63;5108889;28;19920;-70
2022/10/29 00:16:49;;;;;;;;;;;;;;;-142.75;100.00;77422.72;5108849;28;19915;-70
2022/10/29 00:19:15;;;;;;;;;;;;;;;-142.75;100.00;77424.69;5109221;28;19926;-70
2022/10/29 00:21:40;;;;;;;;;;;;;;;-142.75;100.00;77410.91;5110740;28;19923;-70
2022/10/29 00:24:07;;;;;;;;;;;;;;;-142.75;100.00;77420.75;5113013;28;19922;-70
2022/10/29 00:26:33;;;;;;;;;;;;;;;-142.75;100.00;77430.59;5095211;28;19923;-71
2022/10/29 00:28:58;;;;;;;;;;;;;;;-142.75;100.00;77428.63;5092811;28;19916;-70
2022/10/29 00:31:23;;;;;;;;;;;;;;;-142.75;100.00;77424.69;5093252;28;19923;-70
2022/10/29 00:33:49;;;;;;;;;;;;;;;-142.75;100.00;77428.63;5093394;28;20519;-70
2022/10/29 00:36:20;;;;;;;;;;;;;;;-142.75;100.00;77436.50;5092997;28;19923;-70
2022/10/29 00:38:46;;;;;;;;;;;;;;;-142.75;100.00;77428.63;5092478;28;19968;-70
2022/10/29 00:41:12;;;;;;;;;;;;;;;-142.75;100.00;77428.63;5092592;28;20389;-69
2022/10/29 00:43:40;;;;;;;;;;;;;;;-142.75;100.00;77422.72;5092502;28;19920;-70
2022/10/29 00:46:07;;;;;;;;;;;;;;;-142.75;100.00;77426.66;5092467;28;20066;-70
2022/10/29 00:48:36;;;;;;;;;;;;;;;-142.75;100.00;77424.69;5092163;28;20057;-68
2022/10/29 00:51:03;;;;;;;;;;;;;;;-142.75;100.00;77428.63;5097650;28;19923;-70
2022/10/29 00:53:31;;;;;;;;;;;;;;;-142.75;100.00;77436.50;5111336;28;19931;-70
2022/10/29 00:55:57;;;;;;;;;;;;;;;-142.75;100.00;77428.63;5110623;28;19916;-70
2022/10/29 00:58:22;;;;;;;;;;;;;;;-142.75;100.00;77428.63;5090655;28;19923;-70
2022/10/29 01:00:47;;;;;;;;;;;;;;;-142.75;100.00;77428.63;5092205;28;19969;-70
2022/10/29 01:03:12;;;;;;;;;;;;;;;-142.75;100.00;77420.75;5092745;28;19938;-70
2022/10/29 01:05:38;;;;;;;;;;;;;;;-142.75;100.00;77420.75;5092186;28;19916;-69
2022/10/29 01:08:04;;;;;;;;;;;;;;;-142.75;100.00;77420.75;5091965;28;20348;-70
2022/10/29 01:10:41;;;;;;;;;;;;;;;-142.75;100.00;77410.91;5094184;28;19916;-69
2022/10/29 01:13:06;;;;;;;;;;;;;;;-142.75;100.00;77418.78;5102520;22;19925;-65
2022/10/29 01:15:41;;;;;;;;;;;;;;;-142.75;100.00;77436.50;5070022;28;19921;-65
2022/10/29 01:18:13;;;;;;;;;;;;;;;-142.75;100.00;77446.34;5070741;28;19995;-65
2022/10/29 01:20:41;;;;;;;;;;;;;;;-142.75;100.00;77438.47;5071568;28;20373;-65
2022/10/29 01:23:25;;;;;;;;;;;;;;;-142.75;100.00;77436.50;5071425;28;20011;-66
2022/10/29 01:25:59;;;;;;;;;;;;;;;-142.75;100.00;77430.59;5071466;28;20340;-66
2022/10/29 01:28:42;;;;;;;;;;;;;;;-142.75;100.00;77444.38;5071022;28;19920;-65
2022/10/29 01:31:15;;;;;;;;;;;;;;;-142.75;100.00;77468.03;5071314;28;20065;-65
2022/10/29 01:33:59;;;;;;;;;;;;;;;-142.75;100.00;77471.97;5070940;28;19935;-65
2022/10/29 01:36:24;;;;;;;;;;;;;;;-142.75;100.00;77495.59;5070020;28;19916;-65
2022/10/29 01:38:49;;;;;;;;;;;;;;;-142.75;100.00;77513.31;5070909;28;19924;-65
2022/10/29 01:41:32;;;;;;;;;;;;;;;-142.75;100.00;77540.88;5071085;28;19916;-65
2022/10/29 01:44:04;;;;;;;;;;;;;;;-142.75;100.00;77534.97;5071164;28;19916;-65
2022/10/29 01:46:39;;;;;;;;;;;;;;;-142.75;100.00;77544.81;5069640;28;19920;-65
2022/10/29 01:49:07;;;;;;;;;;;;;;;-142.75;100.00;77574.34;5070882;28;20271;-65
2022/10/29 01:51:34;;;;;;;;;;;;;;;-142.75;100.00;77554.66;5070873;28;19916;-65
2022/10/29 01:54:00;;;;;;;;;;;;;;;-142.75;100.00;77554.66;5070547;28;19936;-66
2022/10/29 01:56:25;;;;;;;;;;;;;;;-142.75;100.00;77546.78;5070750;28;19938;-65
2022/10/29 01:58:53;;;;;;;;;;;;;;;-142.75;100.00;77546.78;5070570;28;19924;-65
2022/10/29 02:01:30;;;;;;;;;;;;;;;-142.75;100.00;77534.97;5070478;28;19916;-66
2022/10/29 02:04:23;;;;;;;;;;;;;;;-142.75;100.00;77538.91;5071598;28;19916;-65
2022/10/29 02:07:07;;;;;;;;;;;;;;;-142.75;100.00;77523.16;5070368;28;19931;-66
2022/10/29 02:09:37;;;;;;;;;;;;;;;-142.75;100.00;77523.16;5050641;28;20007;-65
2022/10/29 02:12:19;;;;;;;;;;;;;;;-142.75;100.00;77517.25;5050465;28;20015;-65
2022/10/29 02:14:46;;;;;;;;;;;;;;;-142.75;100.00;77525.13;5050508;28;19928;-65
2022/10/29 02:17:11;;;;;;;;;;;;;;;-142.75;100.00;77519.22;5048904;28;19916;-65
2022/10/29 02:19:37;;;;;;;;;;;;;;;-142.75;100.00;77509.38;5050518;28;19931;-65
2022/10/29 02:22:02;;;;;;;;;;;;;;;-142.75;100.00;77511.34;5050184;28;19940;-66
2022/10/29 02:24:27;;;;;;;;;;;;;;;-142.75;100.00;77517.25;5050300;28;19923;-65
2022/10/29 02:26:52;;;;;;;;;;;;;;;-142.75;100.00;77519.22;5050102;28;19951;-66
2022/10/29 02:29:18;;;;;;;;;;;;;;;-142.75;100.00;77515.28;5050467;28;19917;-65
2022/10/29 02:31:43;;;;;;;;;;;;;;;-142.75;100.00;77497.56;5050158;28;20019;-66
2022/10/29 02:34:08;;;;;;;;;;;;;;;-142.75;100.00;77491.66;5050829;28;20306;-65
2022/10/29 02:36:33;;;;;;;;;;;;;;;-142.75;100.00;77497.56;5048802;28;19916;-65
2022/10/29 02:38:58;;;;;;;;;;;;;;;-142.75;100.00;77507.41;5049960;28;20015;-65
2022/10/29 02:41:24;;;;;;;;;;;;;;;-142.75;100.00;77499.53;5049996;28;19917;-65
2022/10/29 02:43:49;;;;;;;;;;;;;;;-142.75;100.00;77519.22;5063401;28;20024;-66
2022/10/29 02:46:18;;;;;;;;;;;;;;;-142.75;100.00;77521.19;5069871;28;19925;-65
2022/10/29 02:48:43;;;;;;;;;;;;;;;-142.75;100.00;77503.47;5068308;28;19916;-66
2022/10/29 02:51:09;;;;;;;;;;;;;;;-142.75;100.00;77495.59;5069739;28;19999;-65
2022/10/29 02:53:34;;;;;;;;;;;;;;;-142.75;100.00;77511.34;5069477;28;20289;-66
2022/10/29 02:55:59;;;;;;;;;;;;;;;-142.75;100.00;77534.97;5069664;28;19916;-65
2022/10/29 02:58:24;;;;;;;;;;;;;;;-142.75;100.00;77519.22;5069388;28;19963;-66
2022/10/29 03:00:50;;;;;;;;;;;;;;;-142.75;100.00;77523.16;5069390;28;19920;-65
2022/10/29 03:03:15;;;;;;;;;;;;;;;-142.75;100.00;77527.09;5069925;28;19965;-65
2022/10/29 03:05:41;;;;;;;;;;;;;;;-142.75;100.00;77515.28;5057776;28;19916;-65
2022/10/29 03:08:06;;;;;;;;;;;;;;;-142.75;100.00;77517.25;5049225;28;19974;-65
2022/10/29 03:10:31;;;;;;;;;;;;;;;-142.75;100.00;77521.19;5049381;28;19920;-65
2022/10/29 03:12:59;;;;;;;;;;;;;;;-142.75;100.00;77525.13;5049058;28;20038;-65
2022/10/29 03:15:25;;;;;;;;;;;;;;;-142.75;100.00;77538.91;5068107;28;20488;-65
2022/10/29 03:17:50;;;;;;;;;;;;;;;-142.75;100.00;77542.84;5068876;28;20022;-66
2022/10/29 03:20:15;;;;;;;;;;;;;;;-142.75;100.00;77564.50;5067868;28;19928;-65
2022/10/29 03:22:40;;;;;;;;;;;;;;;-142.75;100.00;77554.66;5068899;28;19963;-65
2022/10/29 03:25:06;;;;;;;;;;;;;;;-142.75;100.00;77558.59;5069069;28;20704;-65
2022/10/29 03:27:31;;;;;;;;;;;;;;;-142.75;100.00;77568.44;5062830;28;19921;-65
2022/10/29 03:29:56;;;;;;;;;;;;;;;-142.75;100.00;77562.53;5049096;28;19917;-65
2022/10/29 03:32:21;;;;;;;;;;;;;;;-142.75;100.00;77562.53;5049073;28;19921;-65
2022/10/29 03:34:46;;;;;;;;;;;;;;;-142.75;100.00;77558.59;5049726;28;19928;-65
2022/10/29 03:37:12;;;;;;;;;;;;;;;-142.75;100.00;77556.63;5047698;28;19987;-65
2022/10/29 03:39:37;;;;;;;;;;;;;;;-142.75;100.00;77570.41;5067151;28;20390;-65
2022/10/29 03:42:02;;;;;;;;;;;;;;;-142.75;100.00;77558.59;5068920;28;19924;-65
2022/10/29 03:44:28;;;;;;;;;;;;;;;-142.75;100.00;77554.66;5068812;28;19923;-65
2022/10/29 03:46:53;;;;;;;;;;;;;;;-142.75;100.00;77556.63;5068565;28;20287;-65
2022/10/29 03:49:18;;;;;;;;;;;;;;;-142.75;100.00;77558.59;5068792;28;19938;-65
2022/10/29 03:51:43;;;;;;;;;;;;;;;-142.75;100.00;77554.66;5068740;28;19916;-65
2022/10/29 03:54:08;;;;;;;;;;;;;;;-142.75;100.00;77564.50;5067341;28;20350;-65
2022/10/29 03:56:34;;;;;;;;;;;;;;;-142.75;100.00;77550.72;5071222;28;20402;-65
2022/10/29 03:58:59;;;;;;;;;;;;;;;-142.75;100.00;77546.78;5072868;28;20429;-65
2022/10/29 04:01:24;;;;;;;;;;;;;;;-142.75;100.00;77540.88;5072730;28;19962;-65
2022/10/29 04:03:49;;;;;;;;;;;;;;;-142.75;100.00;77536.94;5073344;28;19924;-65
2022/10/29 04:06:14;;;;;;;;;;;;;;;-142.75;100.00;77536.94;5065668;28;20066;-65
2022/10/29 04:08:40;;;;;;;;;;;;;;;-142.75;100.00;77536.94;5052749;28;20325;-65
2022/10/29 04:11:06;;;;;;;;;;;;;;;-142.75;100.00;77523.16;5072596;28;19935;-68
2022/10/29 04:13:32;;;;;;;;;;;;;;;-142.75;100.00;77523.16;5072300;28;20453;-67
2022/10/29 04:15:57;;;;;;;;;;;;;;;-142.75;100.00;77529.06;5072528;28;20031;-65
2022/10/29 04:18:23;;;;;;;;;;;;;;;-142.75;100.00;77531.03;5071640;28;19917;-65
2022/10/29 04:20:48;;;;;;;;;;;;;;;-142.75;100.00;77529.06;5072525;28;20002;-65
2022/10/29 04:23:13;;;;;;;;;;;;;;;-142.75;100.00;77515.28;5071989;28;19952;-65
2022/10/29 04:25:38;;;;;;;;;;;;;;;-142.75;100.00;77495.59;5072369;28;19942;-65
2022/10/29 04:28:03;;;;;;;;;;;;;;;-142.75;100.00;77485.75;5070672;28;20002;-65
2022/10/29 04:30:29;;;;;;;;;;;;;;;-142.75;100.00;77477.88;5072255;28;20385;-65
2022/10/29 04:32:54;;;;;;;;;;;;;;;-142.75;100.00;77479.84;5072119;28;19920;-65
2022/10/29 04:35:20;;;;;;;;;;;;;;;-142.75;100.00;77464.09;5072960;28;19924;-65
2022/10/29 04:37:45;;;;;;;;;;;;;;;-142.75;100.00;77454.25;5071723;28;19921;-65
2022/10/29 04:40:10;;;;;;;;;;;;;;;-142.75;100.00;77452.25;5072153;28;19916;-65
2022/10/29 04:42:36;;;;;;;;;;;;;;;-142.75;100.00;77450.28;5061415;28;19955;-65
2022/10/29 04:45:02;;;;;;;;;;;;;;;-142.75;100.00;77452.25;5052182;28;19917;-65
2022/10/29 04:47:28;;;;;;;;;;;;;;;-142.75;100.00;77462.13;5051841;28;19970;-65
2022/10/29 04:49:53;;;;;;;;;;;;;;;-142.75;100.00;77458.16;5060225;28;20325;-65
2022/10/29 04:52:18;;;;;;;;;;;;;;;-142.75;100.00;77462.13;5064890;28;19916;-65
2022/10/29 04:54:43;;;;;;;;;;;;;;;-142.75;100.00;77444.38;5071995;28;19920;-66
2022/10/29 04:57:09;;;;;;;;;;;;;;;-142.75;100.00;77430.59;5071699;28;19916;-66
2022/10/29 04:59:34;;;;;;;;;;;;;;;-142.75;100.00;77430.59;5071767;28;20370;-65
2022/10/29 05:01:59;;;;;;;;;;;;;;;-142.75;100.00;77432.56;5071655;28;19920;-66
2022/10/29 05:04:24;;;;;;;;;;;;;;;-142.75;100.00;77426.66;5071815;28;19923;-66
2022/10/29 05:06:49;;;;;;;;;;;;;;;-142.75;100.00;77428.63;5065507;28;20027;-65
2022/10/29 05:09:14;;;;;;;;;;;;;;;-142.75;100.00;77438.47;5051696;28;19927;-66
2022/10/29 05:11:40;;;;;;;;;;;;;;;-142.75;100.00;77436.50;5050877;28;19925;-65
2022/10/29 05:14:05;;;;;;;;;;;;;;;-142.75;100.00;77420.75;5050884;28;19920;-65
2022/10/29 05:16:31;;;;;;;;;;;;;;;-142.75;100.00;77410.91;5068550;28;19917;-65
2022/10/29 05:18:56;;;;;;;;;;;;;;;-142.75;100.00;77399.09;5070625;28;20370;-65
2022/10/29 05:21:21;;;;;;;;;;;;;;;-142.75;100.00;77397.13;5070681;28;19991;-65
2022/10/29 05:23:47;;;;;;;;;;;;;;;-142.75;100.00;77391.22;5070418;28;19917;-65
2022/10/29 05:26:12;;;;;;;;;;;;;;;-142.75;100.00;77393.19;5070631;28;19924;-65
2022/10/29 05:28:37;;;;;;;;;;;;;;;-142.75;100.00;77389.25;5070258;28;20382;-65
2022/10/29 05:31:02;;;;;;;;;;;;;;;-142.75;100.00;77387.28;5070409;28;19971;-65
2022/10/29 05:33:27;;;;;;;;;;;;;;;-142.75;100.00;77387.28;5070372;28;19921;-65
2022/10/29 05:35:53;;;;;;;;;;;;;;;-142.75;100.00;77393.19;5070757;28;19916;-66
2022/10/29 05:38:18;;;;;;;;;;;;;;;-142.75;100.00;77393.19;5070423;28;19963;-65
2022/10/29 05:40:43;;;;;;;;;;;;;;;-142.75;100.00;77389.25;5070266;28;19977;-65
2022/10/29 05:43:12;;;;;;;;;;;;;;;-142.75;100.00;77381.38;5070180;28;19916;-65
2022/10/29 05:45:38;;;;;;;;;;;;;;;-142.75;100.00;77373.50;5070091;28;19916;-65
2022/10/29 05:48:04;;;;;;;;;;;;;;;-142.75;100.00;77373.50;5069789;28;19924;-66
2022/10/29 05:50:29;;;;;;;;;;;;;;;-142.75;100.00;77377.44;5070243;28;19916;-65
2022/10/29 05:52:55;;;;;;;;;;;;;;;-142.75;100.00;77381.38;5069750;28;19920;-65
2022/10/29 05:55:20;;;;;;;;;;;;;;;-142.75;100.00;77379.41;5070061;28;19927;-66
2022/10/29 05:57:45;;;;;;;;;;;;;;;-142.75;100.00;77369.56;5069652;28;20388;-65
2022/10/29 06:00:10;;;;;;;;;;;;;;;-142.75;100.00;77361.69;5069945;28;19916;-66
2022/10/29 06:02:35;;;;;;;;;;;;;;;-142.75;100.00;77361.69;5068824;28;19916;-67
2022/10/29 06:05:01;;;;;;;;;;;;;;;-142.75;100.00;77361.69;5059600;28;20008;-66
2022/10/29 06:07:26;;;;;;;;;;;;;;;-142.75;100.00;77353.81;5059126;28;19917;-66
2022/10/29 06:09:51;;;;;;;;;;;;;;;-142.75;100.00;77343.97;5058509;28;19924;-66
2022/10/29 06:12:16;;;;;;;;;;;;;;;-142.75;100.00;77342.00;5058245;28;19932;-66
2022/10/29 06:14:41;;;;;;;;;;;;;;;-142.75;100.00;77347.91;5059521;28;19921;-66
2022/10/29 06:17:07;;;;;;;;;;;;;;;-142.75;100.00;77338.06;5059555;28;20410;-65
2022/10/29 06:19:32;;;;;;;;;;;;;;;-142.75;100.00;77334.13;5057632;28;20437;-66
2022/10/29 06:21:57;;;;;;;;;;;;;;;-142.75;100.00;77326.25;5059889;28;19917;-65
2022/10/29 06:24:22;;;;;;;;;;;;;;;-142.75;100.00;77318.38;5060132;28;19943;-66
2022/10/29 06:26:47;;;;;;;;;;;;;;;-142.75;100.00;77322.31;5048068;28;19924;-66
2022/10/29 06:29:12;;;;;;;;;;;;;;;-142.75;100.00;77328.22;5049543;28;19923;-66
2022/10/29 06:31:38;;;;;;;;;;;;;;;-142.75;100.00;77336.09;5049577;28;19946;-66
2022/10/29 06:34:03;;;;;;;;;;;;;;;-142.75;100.00;77328.22;5049927;28;19944;-65
2022/10/29 06:36:28;;;;;;;;;;;;;;;-142.75;100.00;77326.25;5049412;28;19940;-66
2022/10/29 06:38:53;;;;;;;;;;;;;;;-142.75;100.00;77318.38;5049093;28;19963;-66
2022/10/29 06:41:23;;;;;;;;;;;;;;;-142.75;100.00;77310.50;5048747;28;19916;-66
2022/10/29 06:43:49;;;;;;;;;;;;;;;-142.75;100.00;77316.41;5068308;28;19923;-65
2022/10/29 06:46:14;;;;;;;;;;;;;;;-142.75;100.00;77310.50;5067020;28;19917;-67
2022/10/29 06:48:39;;;;;;;;;;;;;;;-142.75;100.00;77308.53;5068407;28;19920;-66
2022/10/29 06:51:04;;;;;;;;;;;;;;;-142.75;100.00;77306.56;5068042;28;20030;-66
2022/10/29 06:53:29;;;;;;;;;;;;;;;-142.75;100.00;77308.53;5068073;28;19935;-66
2022/10/29 06:55:55;;;;;;;;;;;;;;;-142.75;100.00;77294.75;5068053;28;19924;-66
2022/10/29 06:58:20;;;;;;;;;;;;;;;-142.75;100.00;77296.72;5067863;28;20451;-66
2022/10/29 07:00:46;;;;;;;;;;;;;;;-142.75;100.00;77298.69;5068117;28;19926;-64
2022/10/29 07:03:12;;;;;;;;;;;;;;;-142.75;100.00;77294.75;5066664;28;19952;-66
2022/10/29 07:05:37;;;;;;;;;;;;;;;-142.75;100.00;77298.69;5067983;28;19925;-66
2022/10/29 07:08:05;;;;;;;;;;;;;;;-142.75;100.00;77298.69;5067618;28;20394;-66
2022/10/29 07:10:31;;;;;;;;;;;;;;;-142.75;100.00;77302.63;5062402;28;20378;-66
2022/10/29 07:12:56;;;;;;;;;;;;;;;-142.75;100.00;77298.69;5082716;22;19931;-68
2022/10/29 07:15:22;;;;;;;;;;;;;;;-142.75;100.00;77282.94;5067188;28;20313;-67
2022/10/29 07:17:57;;;;;;;;;;;;;;;-142.75;100.00;77277.03;5083043;28;19916;-68
2022/10/29 07:20:23;;;;;;;;;;;;;;;-142.75;100.00;77253.41;5069965;28;19962;-68
2022/10/29 07:22:48;;;;;;;;;;;;;;;-142.75;100.00;77245.53;5088165;28;20328;-68
2022/10/29 07:25:13;;;;;;;;;;;;;;;-142.75;100.00;77212.06;5083847;28;20347;-67
2022/10/29 07:27:39;;;;;;;;;;;;;;;-142.75;100.00;77194.34;5049915;28;19959;-68
2022/10/29 07:30:04;;;;;;;;;;;;;;;-142.75;100.00;77174.66;5067409;28;19942;-68
2022/10/29 07:32:29;;;;;;;;;;;;;;;-142.75;100.00;77141.19;5067924;28;19920;-67
2022/10/29 07:34:54;;;;;;;;;;;;;;;-142.75;100.00;77135.28;5081049;28;19928;-66
2022/10/29 07:37:20;;;;;;;;;;;;;;;-142.75;100.00;77103.78;5071284;28;19917;-67
2022/10/29 07:39:45;;;;;;;;;;;;;;;-142.75;100.00;77054.56;5072629;28;20409;-68
2022/10/29 07:42:10;;;;;;;;;;;;;;;-142.75;100.00;77038.81;5054787;28;19923;-69
2022/10/29 07:44:35;;;;;;;;;;;;;;;-142.75;100.00;77038.81;5073093;28;20289;-68
2022/10/29 07:47:01;;;;;;;;;;;;;;;-142.75;100.00;77023.06;5050798;28;19928;-65
2022/10/29 07:49:27;;;;;;;;;;;;;;;-142.75;100.00;77017.16;5070258;28;19923;-68
2022/10/29 07:51:52;;;;;;;;;;;;;;;-142.75;100.00;77011.25;5067551;28;19916;-70
2022/10/29 07:54:17;;;;;;;;;;;;;;;-142.75;100.00;77023.06;5064656;28;21355;-69
2022/10/29 07:56:42;;;;;;;;;;;;;;;-142.75;100.00;77036.84;5086736;28;19916;-69
2022/10/29 07:59:08;;;;;;;;;;;;;;;-142.75;100.00;77034.88;5066736;28;20011;-67
2022/10/29 08:01:33;;;;;;;;;;;;;;;-142.75;100.00;77036.84;5054293;28;19922;-68
2022/10/29 08:03:58;;;;;;;;;;;;;;;-142.75;100.00;77028.97;5078981;28;19916;-68
2022/10/29 08:06:23;;;;;;;;;;;;;;;-142.75;100.00;77005.34;5069341;28;19970;-66
2022/10/29 08:08:48;;;;;;;;;;;;;;;-142.75;100.00;76995.50;5055322;28;20016;-68
2022/10/29 08:11:14;;;;;;;;;;;;;;;-142.75;100.00;76987.63;5074296;28;19920;-68
2022/10/29 08:13:39;;;;;;;;;;;;;;;-142.75;100.00;76991.56;5073226;28;20305;-69
2022/10/29 08:16:04;;;;;;;;;;;;;;;-142.75;100.00;76995.50;5063031;28;19924;-67
2022/10/29 08:18:29;;;;;;;;;;;;;;;-142.75;100.00;76995.50;5047621;28;19917;-68
2022/10/29 08:20:54;;;;;;;;;;;;;;;-142.75;100.00;76999.44;5066164;28;20309;-68
2022/10/29 08:23:20;;;;;;;;;;;;;;;-142.75;100.00;77009.28;5064098;28;20011;-68
2022/10/29 08:25:45;;;;;;;;;;;;;;;-142.75;100.00;76999.44;5049548;28;19916;-69
2022/10/29 08:28:12;;;;;;;;;;;;;;;-142.75;100.00;77005.34;5065339;28;19924;-67
2022/10/29 08:30:37;;;;;;;;;;;;;;;-142.75;100.00;76995.50;5065585;28;19924;-70
2022/10/29 08:33:03;;;;;;;;;;;;;;;-142.75;100.00;76989.59;5065350;28;19921;-68
2022/10/29 08:35:29;;;;;;;;;;;;;;;-142.75;100.00;76975.81;5079446;28;20007;-68
2022/10/29 08:37:54;;;;;;;;;;;;;;;-142.75;100.00;76987.63;5075364;28;20281;-69
2022/10/29 08:40:22;;;;;;;;;;;;;;;-142.75;100.00;76991.56;5077557;28;19985;-67
2022/10/29 08:42:58;;;;;;;;;;;;;;;-142.75;100.00;76995.50;5081798;28;19916;-69
2022/10/29 08:45:27;;;;;;;;;;;;;;;-142.75;100.00;76999.44;5054082;28;19928;-69
2022/10/29 08:48:11;;;;;;;;;;;;;;;-142.75;100.00;76989.59;5052256;28;19924;-67
2022/10/29 08:50:40;;;;;;;;;;;;;;;-142.75;100.00;76987.63;5075400;28;20137;-68
2022/10/29 08:53:13;;;;;;;;;;;;;;;-142.75;100.00;76979.75;5070622;28;19932;-68
2022/10/29 08:55:39;;;;;;;;;;;;;;;-142.75;100.00;76981.72;5074094;28;20309;-67
2022/10/29 08:58:24;;;;;;;;;;;;;;;-142.75;100.00;76975.81;5080782;28;19916;-68
2022/10/29 09:00:53;;;;;;;;;;;;;;;-142.75;100.00;76973.84;5055846;28;20023;-69
2022/10/29 09:03:18;;;;;;;;;;;;;;;-142.75;100.00;76965.97;5079219;28;19917;-71
2022/10/29 09:05:58;;;;;;;;;;;;;;;-142.75;100.00;76950.22;5065126;28;20297;-65
2022/10/29 09:08:40;;;;;;;;;;;;;;;-142.75;100.00;76952.19;5079438;28;19916;-71
2022/10/29 09:11:15;;;;;;;;;;;;;;;-142.75;100.00;76965.97;5083539;28;20053;-72
2022/10/29 09:13:43;;;;;;;;;;;;;;;-142.75;100.00;76962.03;5076276;28;19921;-71
2022/10/29 09:16:20;;;;;;;;;;;;;;;-142.75;100.00;76950.22;5080259;28;20374;-70
2022/10/29 09:19:04;;;;;;;;;;;;;;;-142.75;100.00;76946.28;5082991;28;19952;-71
2022/10/29 09:21:38;;;;;;;;;;;;;;;-142.75;100.00;76944.31;5082377;28;19943;-71
2022/10/29 09:24:18;;;;;;;;;;;;;;;-142.75;100.00;76936.44;5081282;28;19963;-69
2022/10/29 09:26:49;;;;;;;;;;;;;;;-142.75;100.00;76924.63;5057743;28;19916;-68
2022/10/29 09:29:26;;;;;;;;;;;;;;;-142.75;100.00;76906.91;5069541;28;19921;-69
2022/10/29 09:32:00;;;;;;;;;;;;;;;-142.75;100.00;76902.97;5082192;28;19916;-68
2022/10/29 09:34:44;;;;;;;;;;;;;;;-142.75;100.00;76910.84;5078836;28;19982;-69
2022/10/29 09:37:12;;;;;;;;;;;;;;;-142.75;100.00;76920.69;5083520;28;19916;-68
2022/10/29 09:39:40;;;;;;;;;;;;;;;-142.75;100.00;76910.84;5082184;28;19916;-68
2022/10/29 09:42:10;;;;;;;;;;;;;;;-142.75;100.00;76908.88;5082883;28;19920;-68
2022/10/29 09:44:49;;;;;;;;;;;;;;;-142.75;100.00;76916.75;5080608;28;20587;-68
2022/10/29 09:47:26;;;;;;;;;;;;;;;-142.75;100.00;76902.97;5081283;28;19938;-69
2022/10/29 09:49:54;;;;;;;;;;;;;;;-142.75;100.00;76885.25;5072258;28;19916;-67
2022/10/29 09:52:25;;;;;;;;;;;;;;;-142.75;100.00;76871.47;5064981;28;20441;-67
2022/10/29 09:54:51;;;;;;;;;;;;;;;-142.75;100.00;76871.47;5065733;28;19928;-66
2022/10/29 09:57:18;;;;;;;;;;;;;;;-142.75;100.00;76855.72;5046824;28;19932;-67
2022/10/29 09:59:46;;;;;;;;;;;;;;;-142.75;100.00;76851.78;5065858;28;19920;-68
2022/10/29 10:02:18;;;;;;;;;;;;;;;-142.75;100.00;76849.81;5046180;28;19917;-68
2022/10/29 10:04:46;;;;;;;;;;;;;;;-142.75;100.00;76826.19;5043796;28;19916;-67
2022/10/29 10:07:15;;;;;;;;;;;;;;;-142.75;100.00;76822.25;5062620;28;20394;-68
2022/10/29 10:10:01;;;;;;;;;;;;;;;-142.75;100.00;76820.28;5073139;28;19923;-68
2022/10/29 10:12:27;;;;;;;;;;;;;;;-142.75;100.00;76810.44;5054545;28;19935;-70
2022/10/29 10:15:03;;;;;;;;;;;;;;;-142.75;100.00;76804.53;5072663;28;19966;-69
2022/10/29 10:17:49;;;;;;;;;;;;;;;-142.75;100.00;76792.75;5073770;28;19923;-68
2022/10/29 10:20:25;;;;;;;;;;;;;;;-142.75;100.00;76778.97;5077321;28;19916;-68
2022/10/29 10:22:50;;;;;;;;;;;;;;;-142.75;100.00;76769.13;5088608;28;20006;-67
2022/10/29 10:25:35;;;;;;;;;;;;;;;-142.75;100.00;76759.28;5091103;28;20010;-69
2022/10/29 10:28:13;;;;;;;;;;;;;;;-142.75;100.00;76719.91;5090926;28;19916;-70
2022/10/29 10:30:38;;;;;;;;;;;;;;;-142.75;100.00;76702.19;5090983;28;19978;-69
2022/10/29 10:33:23;;;;;;;;;;;;;;;-142.75;100.00;76652.97;5090779;28;19963;-71
2022/10/29 10:35:48;;;;;;;;;;;;;;;-142.75;100.00;76637.22;5078909;28;19939;-71
2022/10/29 10:38:14;;;;;;;;;;;;;;;-142.75;100.00;76633.28;5071186;28;20374;-70
2022/10/29 10:40:41;;;;;;;;;;;;;;;-142.75;100.00;76562.41;5084398;28;19916;-70
2022/10/29 10:43:17;;;;;;;;;;;;;;;-142.75;100.00;76507.31;5088940;28;19916;-71
2022/10/29 10:45:42;;;;;;;;;;;;;;;-142.75;100.00;76440.38;5070845;28;20525;-70
2022/10/29 10:48:09;;;;;;;;;;;;;;;-142.75;100.00;76399.03;5072154;28;20022;-70
2022/10/29 10:50:35;;;;;;;;;;;;;;;-142.75;100.00;76404.94;5072993;28;20282;-71
2022/10/29 10:53:05;;;;;;;;;;;;;;;-142.75;100.00;76341.97;5091277;28;19920;-70
2022/10/29 10:55:33;;;;;;;;;;;;;;;-142.75;100.00;76306.53;5091449;28;19923;-72
2022/10/29 10:58:01;;;;;;;;;;;;;;;-142.75;100.00;76288.81;5090654;28;19916;-70
2022/10/29 11:00:28;;;;;;;;;;;;;;;-142.75;100.00;76239.59;5091418;28;19951;-70
2022/10/29 11:03:01;;;;;;;;;;;;;;;-142.75;100.00;76231.72;5091164;28;19924;-71
2022/10/29 11:05:35;;;;;;;;;;;;;;;-142.75;100.00;76300.63;5091166;28;19973;-71
2022/10/29 11:08:05;;;;;;;;;;;;;;;-142.75;100.00;76353.78;5090908;28;20324;-71
2022/10/29 11:10:35;;;;;;;;;;;;;;;-142.75;100.00;76406.91;5091256;28;19916;-70
2022/10/29 11:13:03;;;;;;;;;;;;;;;-142.75;100.00;76408.88;5090651;28;19923;-68
2022/10/29 11:15:36;;;;;;;;;;;;;;;-142.75;100.00;76440.38;5072516;28;20341;-71
2022/10/29 11:18:09;;;;;;;;;;;;;;;-142.75;100.00;76444.31;5072500;28;20404;-71
2022/10/29 11:20:35;;;;;;;;;;;;;;;-142.75;100.00;76444.31;5073413;28;19949;-70
2022/10/29 11:23:15;;;;;;;;;;;;;;;-142.75;100.00;76432.50;5081308;28;20011;-71
2022/10/29 11:25:44;;;;;;;;;;;;;;;-142.75;100.00;76432.50;5069199;28;19916;-68
2022/10/29 11:28:15;;;;;;;;;;;;;;;-142.75;100.00;76408.88;5068990;28;20382;-70
2022/10/29 11:30:43;;;;;;;;;;;;;;;-142.75;100.00;76391.16;5069458;28;19962;-69
2022/10/29 11:33:17;;;;;;;;;;;;;;;-142.75;100.00;76373.44;5069310;28;19920;-68
2022/10/29 11:36:21;;;;;;;;;;;;;;;-142.75;100.00;76353.78;5072777;28;19923;-68
2022/10/29 11:38:49;;;;;;;;;;;;;;;-142.75;100.00;76328.19;4974035;28;20005;-70
2022/10/29 11:41:33;;;;;;;;;;;;;;;-142.75;100.00;76304.56;4986660;28;19918;-70
2022/10/29 11:43:58;;;;;;;;;;;;;;;-142.75;100.00;76241.56;5050661;28;20385;-71
2022/10/29 11:46:24;;;;;;;;;;;;;;;-142.75;100.00;76208.09;5090451;28;19920;-66
2022/10/29 11:49:08;;;;;;;;;;;;;;;-142.75;100.00;76184.50;5071731;28;19916;-70
2022/10/29 11:51:39;;;;;;;;;;;;;;;-142.75;100.00;76143.16;5070486;28;19916;-71
2022/10/29 11:54:22;;;;;;;;;;;;;;;-142.75;100.00;76113.63;5070791;28;19982;-71
2022/10/29 11:56:50;;;;;;;;;;;;;;;-142.75;100.00;76101.81;5070656;28;19970;-70
2022/10/29 11:59:18;;;;;;;;;;;;;;;-142.75;100.00;76070.34;5070942;28;20340;-70
2022/10/29 12:01:59;;;;;;;;;;;;;;;-142.75;100.00;76052.63;5071069;28;19921;-71
2022/10/29 12:04:32;;;;;;;;;;;;;;;-142.75;100.00;76044.75;5070901;28;19916;-70
2022/10/29 12:07:08;;;;;;;;;;;;;;;-142.75;100.00;76040.81;5070225;28;19959;-70
2022/10/29 12:09:41;;;;;;;;;;;;;;;-142.75;100.00;76070.34;5070979;28;19920;-70
2022/10/29 12:12:11;;;;;;;;;;;;;;;-142.75;100.00;76074.25;5069661;28;19921;-70
2022/10/29 12:14:48;;;;;;;;;;;;;;;-142.75;100.00;76109.69;5064620;28;20341;-71
2022/10/29 12:17:36;;;;;;;;;;;;;;;-142.75;100.00;76109.69;5080334;28;20399;-65
2022/10/29 12:20:07;;;;;;;;;;;;;;;-142.75;100.00;76097.88;5079258;28;20003;-67
2022/10/29 12:22:33;;;;;;;;;;;;;;;-142.75;100.00;76103.78;5077671;28;19923;-66
2022/10/29 12:25:10;;;;;;;;;;;;;;;-142.75;100.00;76111.66;5076567;28;19916;-68